createdAt,value
2022-08-09T00:00:25.660Z,102912.06
2022-08-09T00:06:18.425Z,102908.22
2022-08-09T00:10:59.901Z,102909.56
2022-08-09T00:16:02.747Z,102922.84
2022-08-09T00:21:08.934Z,102921.16
2022-08-09T00:26:12.182Z,102921.50
2022-08-09T00:31:58.094Z,102921.31
2022-08-09T00:36:41.593Z,102922.50
2022-08-09T00:44:15.498Z,102923.50
2022-08-09T00:47:08.838Z,102922.31
2022-08-09T00:52:20.599Z,102921.09
2022-08-09T00:57:34.471Z,102913.69
2022-08-09T01:02:45.942Z,102919.56
2022-08-09T01:07:59.630Z,102909.44
2022-08-09T01:13:18.909Z,102913.63
2022-08-09T01:18:30.587Z,102918.50
2022-08-09T01:24:02.974Z,102921.16
2022-08-09T01:29:07.144Z,102922.81
2022-08-09T01:34:11.028Z,102925.13
2022-08-09T01:39:13.751Z,102919.88
2022-08-09T01:44:20.371Z,102922.53
2022-08-09T01:49:25.684Z,102923.16
2022-08-09T01:54:44.010Z,102922.75
2022-08-09T01:59:53.178Z,102919.72
2022-08-09T02:05:15.097Z,102926.41
2022-08-09T02:10:29.749Z,102927.19
2022-08-09T02:15:49.190Z,102928.50
2022-08-09T02:21:04.624Z,102930.84
2022-08-09T02:26:27.036Z,102933.31
2022-08-09T02:31:36.570Z,102937.47
2022-08-09T02:36:42.220Z,102930.34
2022-08-09T02:42:08.607Z,102930.50
2022-08-09T02:47:12.887Z,102930.97
2022-08-09T02:52:20.689Z,102936.81
2022-08-09T02:57:25.207Z,102933.63
2022-08-09T03:02:28.090Z,102929.34
2022-08-09T03:07:31.482Z,102922.63
2022-08-09T03:12:42.161Z,102920.22
2022-08-09T03:17:57.905Z,102927.94
2022-08-09T03:23:14.726Z,102915.06
2022-08-09T03:28:19.856Z,102926.84
2022-08-09T03:33:23.005Z,102920.22
2022-08-09T03:38:29.048Z,102921.53
2022-08-09T03:43:33.677Z,102927.38
2022-08-09T03:48:42.866Z,102912.38
2022-08-09T03:53:53.597Z,102920.75
2022-08-09T03:58:57.583Z,102926.44
2022-08-09T04:04:09.985Z,102924.59
2022-08-09T04:09:47.636Z,102920.38
2022-08-09T04:15:00.719Z,102933.69
2022-08-09T04:20:08.040Z,102939.13
2022-08-09T04:25:10.078Z,102940.59
2022-08-09T04:30:23.387Z,102945.75
2022-08-09T04:35:32.900Z,102950.06
2022-08-09T04:40:56.213Z,102946.44
2022-08-09T04:46:01.766Z,102951.88
2022-08-09T04:51:08.989Z,102960.81
2022-08-09T04:56:11.410Z,102959.91
2022-08-09T05:01:24.196Z,102968.50
2022-08-09T05:06:29.823Z,102963.44
2022-08-09T05:11:40.720Z,102978.75
2022-08-09T05:16:58.967Z,102981.81
2022-08-09T05:22:01.466Z,102990.38
2022-08-09T05:27:03.380Z,102982.88
2022-08-09T05:32:07.865Z,102984.28
2022-08-09T05:37:14.229Z,102983.34
2022-08-09T05:42:22.213Z,102984.75
2022-08-09T05:47:33.101Z,102986.31
2022-08-09T05:52:36.301Z,102983.16
2022-08-09T05:57:51.177Z,102991.09
2022-08-09T06:03:03.458Z,102997.31
2022-08-09T06:08:09.180Z,103006.22
2022-08-09T06:13:18.450Z,102997.41
2022-08-09T06:18:28.214Z,102999.63
2022-08-09T06:23:58.570Z,102999.63
2022-08-09T06:29:04.961Z,102995.22
2022-08-09T06:34:07.471Z,103001.97
2022-08-09T06:39:12.652Z,102995.53
2022-08-09T06:44:18.271Z,103006.59
2022-08-09T06:49:29.124Z,103011.91
2022-08-09T06:54:50.714Z,103015.53
2022-08-09T07:00:51.345Z,103025.41
2022-08-09T07:05:19.549Z,103033.81
2022-08-09T07:10:31.373Z,103033.59
2022-08-09T07:16:36.199Z,103042.47
2022-08-09T07:21:13.583Z,103049.34
2022-08-09T07:26:17.822Z,103056.97
2022-08-09T07:31:24.128Z,103061.41
2022-08-09T07:36:30.986Z,103053.75
2022-08-09T07:41:38.701Z,103055.09
2022-08-09T07:46:41.570Z,103063.63
2022-08-09T07:52:05.749Z,103061.34
2022-08-09T07:57:12.046Z,103069.59
2022-08-09T08:02:19.481Z,103072.00
2022-08-09T08:08:42.802Z,103070.69
2022-08-09T08:12:56.699Z,103077.81
2022-08-09T08:18:01.023Z,103074.81
2022-08-09T08:23:17.080Z,103076.22
2022-08-09T08:28:32.307Z,103065.25
2022-08-09T08:33:52.054Z,103081.63
2022-08-09T08:38:58.741Z,103076.75
2022-08-09T08:44:04.153Z,103074.47
2022-08-09T08:49:12.775Z,103083.66
2022-08-09T08:54:29.663Z,103086.72
2022-08-09T08:59:46.767Z,103090.81
2022-08-09T09:04:53.491Z,103082.41
2022-08-09T09:10:04.716Z,103084.38
2022-08-09T09:15:07.407Z,103085.56
2022-08-09T09:20:17.588Z,103089.66
2022-08-09T09:26:05.065Z,103086.59
2022-08-09T09:32:03.358Z,103084.56
2022-08-09T09:36:52.814Z,103096.09
2022-08-09T09:41:56.850Z,103097.78
2022-08-09T09:47:13.394Z,103092.03
2022-08-09T09:52:36.105Z,103100.16
2022-08-09T09:58:00.895Z,103089.81
2022-08-09T10:03:11.535Z,103088.34
2022-08-09T10:08:27.243Z,103086.06
2022-08-09T10:13:44.968Z,103081.97
2022-08-09T10:18:55.013Z,103074.91
2022-08-09T10:24:04.037Z,103072.25
2022-08-09T10:29:33.726Z,103081.31
2022-08-09T10:34:33.103Z,103076.13
2022-08-09T10:39:40.710Z,103073.78
2022-08-09T10:44:57.890Z,103067.31
2022-08-09T10:50:09.994Z,103071.47
2022-08-09T10:55:49.358Z,103068.78
2022-08-09T11:03:06.450Z,103062.91
2022-08-09T11:06:16.217Z,103071.59
2022-08-09T11:11:19.189Z,103072.25
2022-08-09T11:16:37.789Z,103074.19
2022-08-09T11:22:18.508Z,103076.91
2022-08-09T11:28:05.536Z,103062.84
2022-08-09T11:33:11.489Z,103050.66
2022-08-09T11:38:32.766Z,103054.00
2022-08-09T11:43:35.590Z,103055.47
2022-08-09T11:48:53.942Z,103050.81
2022-08-09T11:54:28.581Z,103051.56
2022-08-09T11:59:37.986Z,103048.53
2022-08-09T12:04:45.351Z,103058.44
2022-08-09T12:09:50.366Z,103055.34
2022-08-09T12:15:04.127Z,103060.50
2022-08-09T12:20:22.660Z,103061.69
2022-08-09T12:25:36.017Z,103060.19
2022-08-09T12:30:39.727Z,103051.59
2022-08-09T12:35:47.939Z,103050.78
2022-08-09T12:40:55.231Z,103046.59
2022-08-09T12:46:02.511Z,103040.84
2022-08-09T12:51:12.734Z,103044.03
2022-08-09T12:56:43.620Z,103035.69
2022-08-09T13:01:58.751Z,103028.47
2022-08-09T13:07:19.595Z,103024.06
2022-08-09T13:12:22.690Z,103032.50
2022-08-09T13:18:03.744Z,103029.88
2022-08-09T13:23:00.960Z,103027.38
2022-08-09T13:28:24.625Z,103031.63
2022-08-09T13:33:53.833Z,103022.00
2022-08-09T13:39:00.935Z,103035.00
2022-08-09T13:44:06.072Z,103024.16
2022-08-09T13:49:18.483Z,103023.78
2022-08-09T13:54:21.170Z,103025.81
2022-08-09T13:59:41.594Z,103031.25
2022-08-09T14:04:47.498Z,103029.94
2022-08-09T14:10:03.196Z,103033.22
2022-08-09T14:16:06.890Z,103027.91
2022-08-09T14:20:35.903Z,103031.63
2022-08-09T14:25:46.660Z,103026.72
2022-08-09T14:30:53.929Z,103036.56
2022-08-09T14:35:58.386Z,103038.22
2022-08-09T14:41:35.341Z,103037.47
2022-08-09T14:47:00.711Z,103030.59
2022-08-09T14:52:05.804Z,103030.44
2022-08-09T14:57:11.101Z,103034.16
2022-08-09T15:02:15.340Z,103021.94
2022-08-09T15:07:23.266Z,103023.06
2022-08-09T15:12:27.669Z,103018.47
2022-08-09T15:17:31.839Z,103013.88
2022-08-09T15:23:01.958Z,103009.13
2022-08-09T15:28:27.982Z,103008.97
2022-08-09T15:34:17.665Z,103009.06
2022-08-09T15:38:52.403Z,102998.38
2022-08-09T15:43:54.355Z,102996.25
2022-08-09T15:49:20.937Z,103003.78
2022-08-09T15:54:27.484Z,102992.09
2022-08-09T15:59:37.465Z,102994.97
2022-08-09T16:04:42.685Z,102982.00
2022-08-09T16:09:57.838Z,102986.94
2022-08-09T16:16:04.364Z,102997.41
2022-08-09T16:20:30.553Z,103003.31
2022-08-09T16:25:39.709Z,103003.44
2022-08-09T16:30:44.687Z,103006.34
2022-08-09T16:36:01.906Z,102998.19
2022-08-09T16:41:20.859Z,103006.56
2022-08-09T16:46:29.587Z,102996.84
2022-08-09T16:51:36.303Z,103005.06
2022-08-09T16:56:49.164Z,102999.09
2022-08-09T17:01:53.294Z,103002.06
2022-08-09T17:08:41.302Z,102999.00
2022-08-09T17:12:19.608Z,103006.56
2022-08-09T17:17:27.436Z,103002.59
2022-08-09T17:22:32.925Z,103004.94
2022-08-09T17:27:40.081Z,102997.34
2022-08-09T17:33:00.672Z,102987.22
2022-08-09T17:38:30.940Z,102996.50
2022-08-09T17:43:44.563Z,102997.41
2022-08-09T17:48:52.435Z,102996.25
2022-08-09T17:54:02.679Z,102993.28
2022-08-09T17:59:11.644Z,102995.75
2022-08-09T18:04:20.114Z,102992.91
2022-08-09T18:09:40.987Z,102999.03
2022-08-09T18:14:49.788Z,102983.78
2022-08-09T18:20:56.682Z,102972.06
2022-08-09T18:25:19.650Z,102956.34
2022-08-09T18:30:41.575Z,102949.44
2022-08-09T18:35:56.265Z,102958.50
2022-08-09T18:41:01.750Z,102960.22
2022-08-09T18:46:51.210Z,102963.16
2022-08-09T18:51:38.427Z,102961.78
2022-08-09T18:56:55.388Z,102962.59
2022-08-09T19:02:00.476Z,102958.97
2022-08-09T19:07:05.480Z,102961.06
2022-08-09T19:12:10.351Z,102965.22
2022-08-09T19:17:14.817Z,102975.28
2022-08-09T19:22:19.893Z,102985.91
2022-08-09T19:27:23.369Z,102997.81
2022-08-09T19:32:33.966Z,102998.81
2022-08-09T19:37:52.749Z,103005.84
2022-08-09T19:43:05.101Z,103006.25
2022-08-09T19:48:14.278Z,103024.00
2022-08-09T19:53:20.766Z,103012.41
2022-08-09T19:58:30.155Z,103018.25
2022-08-09T20:04:11.126Z,103020.66
2022-08-09T20:08:57.710Z,103020.97
2022-08-09T20:14:01.199Z,103016.72
2022-08-09T20:19:49.155Z,103028.09
2022-08-09T20:24:33.871Z,103025.72
2022-08-09T20:29:39.497Z,103020.88
2022-08-09T20:34:42.552Z,103019.13
2022-08-09T20:40:15.812Z,103015.94
2022-08-09T20:46:00.900Z,103023.56
2022-08-09T20:50:47.474Z,103013.88
2022-08-09T20:56:02.402Z,103017.16
2022-08-09T21:01:33.363Z,103020.00
2022-08-09T21:06:38.303Z,103012.81
2022-08-09T21:18:11.622Z,103001.22
2022-08-09T21:22:38.214Z,103002.81
2022-08-09T21:27:52.436Z,103011.09
2022-08-09T21:32:55.382Z,103014.31
2022-08-09T21:38:00.377Z,103008.78
2022-08-09T21:43:06.254Z,103015.44
2022-08-09T21:48:10.333Z,103020.78
2022-08-09T21:53:39.923Z,103009.47
2022-08-09T21:58:44.682Z,103014.06
2022-08-09T22:03:59.034Z,103004.44
2022-08-09T22:09:01.482Z,102998.88
2022-08-09T22:14:03.588Z,103008.25
2022-08-09T22:19:59.102Z,102993.38
2022-08-09T22:24:29.567Z,103004.44
2022-08-09T22:29:46.165Z,102992.72
2022-08-09T22:35:02.500Z,102997.03
2022-08-09T22:40:18.205Z,102989.81
2022-08-09T22:48:11.986Z,102992.28
2022-08-09T22:50:53.012Z,102985.84
2022-08-09T22:56:29.801Z,102984.31
2022-08-09T23:01:17.051Z,102983.00
2022-08-09T23:06:34.820Z,102976.09
2022-08-09T23:11:38.803Z,102973.75
2022-08-09T23:16:40.539Z,102981.06
2022-08-09T23:21:42.474Z,102973.28
2022-08-09T23:26:44.579Z,102964.00
2022-08-09T23:31:54.261Z,102978.31
2022-08-09T23:36:59.567Z,102969.50
2022-08-09T23:42:04.430Z,102970.06
2022-08-09T23:47:17.944Z,102968.38
2022-08-09T23:52:23.362Z,102958.56
2022-08-09T23:57:26.343Z,102961.19
